createdAt,value
2018-12-09T00:00:59.372Z,23.10
2018-12-09T00:03:37.101Z,23.33
2018-12-09T00:06:13.077Z,30.03
2018-12-09T00:08:51.467Z,31.60
2018-12-09T00:11:32.674Z,18.57
2018-12-09T00:14:09.911Z,20.27
2018-12-09T00:16:48.548Z,17.53
2018-12-09T00:19:24.842Z,25.35
2018-12-09T00:22:01.898Z,30.37
2018-12-09T00:24:39.219Z,26.73
2018-12-09T00:27:14.762Z,24.47
2018-12-09T00:29:51.552Z,23.57
2018-12-09T00:32:28.909Z,20.23
2018-12-09T00:35:07.178Z,15.43
2018-12-09T00:37:44.131Z,16.33
2018-12-09T00:40:21.233Z,24.77
2018-12-09T00:42:58.143Z,18.33
2018-12-09T00:45:34.960Z,31.37
2018-12-09T00:48:12.574Z,21.47
2018-12-09T00:50:49.883Z,20.27
2018-12-09T00:53:24.769Z,21.70
2018-12-09T00:56:02.259Z,27.53
2018-12-09T00:58:39.190Z,21.87
2018-12-09T01:01:16.970Z,11.47
2018-12-09T01:03:53.135Z,25.50
2018-12-09T01:06:29.572Z,19.35
2018-12-09T01:09:06.272Z,19.70
2018-12-09T01:11:44.289Z,27.20
2018-12-09T01:14:20.496Z,17.40
2018-12-09T01:16:59.100Z,24.37
2018-12-09T01:19:36.453Z,23.20
2018-12-09T01:22:15.852Z,24.27
2018-12-09T01:24:53.212Z,22.90
2018-12-09T01:30:04.248Z,24.13
2018-12-09T01:32:33.796Z,24.43
2018-12-09T01:35:03.116Z,17.80
2018-12-09T01:37:32.529Z,16.83
2018-12-09T01:40:01.841Z,17.33
2018-12-09T01:42:31.132Z,19.63
2018-12-09T01:45:00.489Z,14.07
2018-12-09T01:47:31.015Z,16.37
2018-12-09T01:50:00.421Z,11.45
2018-12-09T01:52:29.746Z,14.07
2018-12-09T01:54:59.052Z,7.63
2018-12-09T01:57:28.361Z,8.30
2018-12-09T01:59:57.663Z,6.33
2018-12-09T02:02:27.766Z,3.87
2018-12-09T02:04:57.097Z,3.92
2018-12-09T02:07:26.450Z,5.93
2018-12-09T02:09:56.093Z,7.10
2018-12-09T02:12:25.426Z,5.70
2018-12-09T02:14:54.844Z,6.40
2018-12-09T02:17:24.252Z,8.80
2018-12-09T02:19:54.075Z,5.90
2018-12-09T02:22:24.085Z,6.27
2018-12-09T02:24:53.392Z,7.80
2018-12-09T02:27:22.715Z,6.00
2018-12-09T02:29:52.052Z,5.67
2018-12-09T02:32:21.431Z,7.70
2018-12-09T02:34:53.964Z,4.67
2018-12-09T02:37:23.268Z,9.60
2018-12-09T02:39:52.573Z,8.83
2018-12-09T02:42:22.471Z,7.28
2018-12-09T02:44:51.890Z,8.77
2018-12-09T02:47:22.272Z,6.13
2018-12-09T02:49:51.583Z,6.67
2018-12-09T02:52:21.372Z,8.13
2018-12-09T02:54:50.676Z,4.73
2018-12-09T02:57:20.518Z,8.77
2018-12-09T02:59:49.914Z,7.13
2018-12-09T03:02:19.251Z,8.08
2018-12-09T03:04:48.596Z,6.40
2018-12-09T03:07:17.913Z,4.65
2018-12-09T03:09:47.206Z,7.30
2018-12-09T03:12:16.801Z,9.37
2018-12-09T03:14:46.130Z,6.80
2018-12-09T03:17:15.422Z,3.33
2018-12-09T03:19:44.721Z,4.23
2018-12-09T03:22:14.121Z,5.80
2018-12-09T03:24:43.698Z,7.97
2018-12-09T03:27:13.011Z,6.37
2018-12-09T03:29:42.307Z,5.12
2018-12-09T03:32:11.684Z,6.03
2018-12-09T03:34:41.202Z,6.33
2018-12-09T03:37:18.207Z,5.35
2018-12-09T03:39:51.869Z,4.87
2018-12-09T03:42:21.829Z,8.47
2018-12-09T03:44:51.154Z,6.05
2018-12-09T03:47:20.566Z,9.33
2018-12-09T03:49:50.254Z,7.97
2018-12-09T03:52:19.726Z,7.42
2018-12-09T03:54:50.017Z,11.13
2018-12-09T03:57:19.424Z,8.17
2018-12-09T03:59:48.833Z,6.93
2018-12-09T04:02:18.160Z,5.70
2018-12-09T04:04:47.676Z,10.13
2018-12-09T04:07:17.003Z,11.53
2018-12-09T04:09:46.542Z,15.80
2018-12-09T04:12:15.856Z,9.23
2018-12-09T04:14:45.164Z,10.13
2018-12-09T04:17:15.237Z,7.60
2018-12-09T04:19:44.551Z,9.83
2018-12-09T04:22:14.554Z,9.45
2018-12-09T04:24:44.089Z,8.53
2018-12-09T04:27:13.396Z,8.33
2018-12-09T04:29:42.794Z,6.47
2018-12-09T04:32:12.110Z,8.07
2018-12-09T04:34:41.463Z,6.60
2018-12-09T04:37:11.201Z,4.62
2018-12-09T04:39:40.509Z,3.50
2018-12-09T04:42:09.928Z,3.33
2018-12-09T04:44:39.283Z,4.00
2018-12-09T04:47:08.624Z,8.47
2018-12-09T04:49:37.932Z,7.58
2018-12-09T04:52:07.252Z,16.20
2018-12-09T04:54:36.686Z,12.03
2018-12-09T04:57:06.136Z,9.50
2018-12-09T04:59:39.898Z,17.77
2018-12-09T05:02:09.221Z,11.93
2018-12-09T05:04:38.567Z,9.93
2018-12-09T05:07:07.883Z,6.77
2018-12-09T05:09:37.610Z,6.53
2018-12-09T05:12:07.093Z,10.93
2018-12-09T05:14:36.412Z,13.50
2018-12-09T05:17:05.976Z,12.53
2018-12-09T05:19:35.336Z,12.80
2018-12-09T05:24:49.600Z,6.63
2018-12-09T05:27:19.166Z,5.60
2018-12-09T05:29:48.774Z,4.30
2018-12-09T05:32:18.380Z,4.35
2018-12-09T05:34:47.884Z,6.20
2018-12-09T05:37:17.469Z,5.17
2018-12-09T05:39:47.002Z,3.92
2018-12-09T05:42:16.602Z,4.57
2018-12-09T05:44:46.321Z,3.70
2018-12-09T05:47:15.992Z,4.55
2018-12-09T05:49:45.644Z,5.57
2018-12-09T05:52:15.307Z,3.53
2018-12-09T05:54:44.845Z,4.73
2018-12-09T05:57:14.550Z,1.57
2018-12-09T05:59:44.069Z,3.37
2018-12-09T06:02:30.791Z,3.58
2018-12-09T06:05:00.259Z,2.47
2018-12-09T06:07:29.886Z,2.80
2018-12-09T06:09:59.589Z,2.60
2018-12-09T06:12:29.185Z,4.47
2018-12-09T06:15:01.010Z,2.70
2018-12-09T06:17:30.621Z,2.10
2018-12-09T06:20:00.167Z,2.53
2018-12-09T06:22:29.774Z,4.37
2018-12-09T06:24:59.285Z,2.23
2018-12-09T06:27:28.813Z,4.72
2018-12-09T06:29:58.297Z,3.67
2018-12-09T06:32:27.929Z,3.60
2018-12-09T06:34:57.510Z,2.30
2018-12-09T06:37:27.559Z,3.87
2018-12-09T06:39:57.040Z,1.97
2018-12-09T06:42:27.189Z,3.63
2018-12-09T06:44:56.761Z,4.00
2018-12-09T06:47:26.336Z,3.97
2018-12-09T06:49:55.966Z,4.77
2018-12-09T06:52:25.473Z,3.43
2018-12-09T06:54:55.188Z,5.57
2018-12-09T06:57:24.787Z,2.37
2018-12-09T06:59:54.425Z,2.43
2018-12-09T07:02:24.217Z,5.10
2018-12-09T07:04:53.851Z,5.60
2018-12-09T07:07:23.964Z,3.95
2018-12-09T07:09:53.590Z,5.33
2018-12-09T07:12:23.125Z,3.83
2018-12-09T07:14:52.658Z,5.08
2018-12-09T07:17:22.171Z,7.65
2018-12-09T07:19:51.883Z,11.23
2018-12-09T07:22:21.572Z,9.68
2018-12-09T07:24:51.082Z,9.10
2018-12-09T07:27:21.118Z,7.97
2018-12-09T07:29:51.024Z,9.07
2018-12-09T07:32:20.634Z,11.30
2018-12-09T07:34:50.241Z,8.30
2018-12-09T07:37:19.771Z,12.15
2018-12-09T07:39:49.350Z,5.20
2018-12-09T07:42:18.976Z,10.55
2018-12-09T07:44:48.700Z,11.97
2018-12-09T07:47:18.389Z,9.47
2018-12-09T07:49:47.917Z,12.23
2018-12-09T07:52:17.878Z,10.33
2018-12-09T07:54:47.386Z,11.73
2018-12-09T07:57:16.991Z,15.75
2018-12-09T07:59:46.508Z,7.70
2018-12-09T08:02:16.009Z,9.00
2018-12-09T08:04:45.520Z,16.87
2018-12-09T08:07:15.036Z,10.28
2018-12-09T08:09:44.534Z,6.57
2018-12-09T08:12:14.021Z,9.08
2018-12-09T08:14:44.450Z,12.57
2018-12-09T08:17:14.216Z,8.30
2018-12-09T08:19:43.721Z,10.83
2018-12-09T08:22:13.534Z,11.27
2018-12-09T08:24:43.126Z,10.30
2018-12-09T08:27:12.759Z,13.47
2018-12-09T08:29:42.411Z,8.70
2018-12-09T08:32:11.918Z,18.05
2018-12-09T08:34:47.674Z,10.27
2018-12-09T08:37:17.276Z,6.15
2018-12-09T08:39:46.862Z,14.20
2018-12-09T08:42:16.503Z,15.57
2018-12-09T08:44:45.990Z,12.73
2018-12-09T08:47:15.619Z,7.75
2018-12-09T08:49:45.184Z,8.70
2018-12-09T08:52:18.821Z,10.93
2018-12-09T08:54:48.499Z,12.10
2018-12-09T08:57:21.942Z,14.73
2018-12-09T08:59:51.609Z,12.20
2018-12-09T09:02:21.243Z,13.73
2018-12-09T09:04:50.947Z,10.03
2018-12-09T09:07:20.331Z,13.90
2018-12-09T09:09:49.693Z,11.67
2018-12-09T09:12:22.377Z,12.03
2018-12-09T09:14:52.414Z,11.00
2018-12-09T09:17:21.789Z,11.25
2018-12-09T09:19:51.147Z,12.50
2018-12-09T09:22:20.618Z,13.03
2018-12-09T09:24:49.954Z,12.53
2018-12-09T09:27:19.264Z,17.70
2018-12-09T09:29:48.767Z,11.63
2018-12-09T09:32:20.134Z,14.00
2018-12-09T09:34:49.475Z,9.80
2018-12-09T09:37:18.860Z,8.83
2018-12-09T09:39:48.501Z,13.37
2018-12-09T09:42:22.298Z,9.30
2018-12-09T09:44:51.912Z,9.83
2018-12-09T09:47:21.399Z,10.30
2018-12-09T09:49:50.816Z,9.93
2018-12-09T09:52:20.161Z,10.07
2018-12-09T09:54:49.480Z,10.43
2018-12-09T09:57:18.860Z,12.70
2018-12-09T09:59:48.225Z,12.40
2018-12-09T10:02:19.731Z,13.72
2018-12-09T10:04:49.128Z,11.80
2018-12-09T10:07:18.524Z,14.50
2018-12-09T10:09:47.902Z,11.00
2018-12-09T10:12:17.248Z,10.13
2018-12-09T10:14:46.603Z,8.27
2018-12-09T10:17:15.950Z,9.80
2018-12-09T10:19:48.552Z,8.78
2018-12-09T10:24:48.802Z,7.53
2018-12-09T10:27:18.155Z,8.37
2018-12-09T10:29:47.500Z,6.17
2018-12-09T10:32:16.860Z,7.70
2018-12-09T10:34:46.319Z,8.43
2018-12-09T10:37:15.792Z,7.70
2018-12-09T10:39:45.169Z,9.53
2018-12-09T10:42:14.583Z,8.38
2018-12-09T10:44:44.725Z,9.33
2018-12-09T10:47:14.082Z,8.03
2018-12-09T10:49:43.460Z,14.07
2018-12-09T10:52:13.113Z,9.83
2018-12-09T10:54:42.793Z,9.30
2018-12-09T10:57:12.116Z,11.87
2018-12-09T10:59:41.497Z,10.37
2018-12-09T11:02:16.117Z,18.32
2018-12-09T11:04:45.479Z,16.37
2018-12-09T11:07:14.849Z,13.23
2018-12-09T11:09:44.197Z,13.07
2018-12-09T11:12:13.527Z,11.63
2018-12-09T11:14:43.493Z,11.20
2018-12-09T11:17:12.813Z,9.93
2018-12-09T11:19:42.279Z,10.80
2018-12-09T11:22:11.617Z,13.37
2018-12-09T11:24:42.594Z,12.40
2018-12-09T11:27:13.213Z,12.30
2018-12-09T11:29:42.580Z,10.58
2018-12-09T11:32:11.968Z,11.30
2018-12-09T11:34:41.307Z,11.67
2018-12-09T11:37:10.694Z,8.33
2018-12-09T11:39:40.104Z,11.47
2018-12-09T11:42:09.433Z,16.60
2018-12-09T11:44:39.128Z,11.87
2018-12-09T11:47:08.565Z,14.33
2018-12-09T11:49:37.907Z,8.83
2018-12-09T11:52:07.306Z,14.20
2018-12-09T11:54:36.745Z,11.80
2018-12-09T11:57:07.084Z,9.10
2018-12-09T11:59:36.492Z,15.50
2018-12-09T12:02:06.247Z,8.68
2018-12-09T12:04:35.591Z,13.83
2018-12-09T12:07:06.261Z,8.07
2018-12-09T12:09:36.182Z,12.23
2018-12-09T12:12:07.839Z,11.57
2018-12-09T12:14:37.179Z,8.07
2018-12-09T12:17:06.620Z,15.10
2018-12-09T12:19:35.966Z,9.23
2018-12-09T12:22:06.040Z,11.30
2018-12-09T12:24:35.495Z,14.93
2018-12-09T12:27:06.187Z,12.70
2018-12-09T12:29:35.606Z,11.93
2018-12-09T12:32:06.286Z,8.10
2018-12-09T12:34:35.633Z,11.07
2018-12-09T12:37:08.717Z,9.30
2018-12-09T12:39:38.283Z,9.17
2018-12-09T12:44:40.081Z,7.73
2018-12-09T12:47:09.560Z,10.57
2018-12-09T12:49:39.284Z,10.00
2018-12-09T12:52:08.739Z,8.60
2018-12-09T12:54:38.152Z,11.47
2018-12-09T12:57:07.484Z,9.20
2018-12-09T12:59:36.883Z,7.83
2018-12-09T13:02:06.730Z,8.63
2018-12-09T13:04:36.150Z,7.57
2018-12-09T13:07:06.162Z,15.83
2018-12-09T13:09:36.298Z,16.73
2018-12-09T13:12:06.291Z,8.03
2018-12-09T13:14:35.706Z,7.40
2018-12-09T13:17:06.392Z,8.47
2018-12-09T13:19:35.975Z,6.97
2018-12-09T13:22:06.311Z,7.33
2018-12-09T13:24:35.688Z,5.87
2018-12-09T13:27:06.655Z,4.83
2018-12-09T13:29:35.962Z,6.33
2018-12-09T13:32:06.094Z,8.58
2018-12-09T13:34:35.531Z,8.30
2018-12-09T13:42:12.457Z,7.30
2018-12-09T13:44:41.924Z,14.73
2018-12-09T13:47:11.257Z,10.72
2018-12-09T13:49:40.593Z,6.83
2018-12-09T13:54:50.465Z,12.17
2018-12-09T13:57:20.755Z,13.80
2018-12-09T13:59:50.167Z,12.67
2018-12-09T14:02:20.875Z,13.43
2018-12-09T14:04:50.203Z,12.43
2018-12-09T14:07:19.842Z,11.15
2018-12-09T14:09:49.360Z,12.37
2018-12-09T14:12:18.751Z,17.48
2018-12-09T14:14:49.402Z,16.37
2018-12-09T14:17:18.985Z,20.40
2018-12-09T14:19:48.407Z,16.60
2018-12-09T14:22:17.726Z,16.37
2018-12-09T14:24:47.172Z,18.20
2018-12-09T14:27:16.632Z,23.38
2018-12-09T14:29:49.775Z,20.30
2018-12-09T14:32:19.069Z,18.20
2018-12-09T14:34:48.360Z,20.03
2018-12-09T14:37:17.989Z,16.77
2018-12-09T14:39:47.276Z,18.57
2018-12-09T14:42:16.620Z,21.48
2018-12-09T14:44:47.080Z,23.85
2018-12-09T14:49:56.976Z,26.73
2018-12-09T14:52:26.424Z,22.77
2018-12-09T14:54:55.702Z,25.93
2018-12-09T14:57:25.067Z,24.80
2018-12-09T14:59:54.352Z,20.52
2018-12-09T15:05:05.846Z,18.40
2018-12-09T15:07:35.162Z,16.63
2018-12-09T15:10:08.533Z,18.77
2018-12-09T15:12:36.522Z,18.53
2018-12-09T15:15:07.054Z,20.08
2018-12-09T15:17:36.464Z,15.40
2018-12-09T15:20:06.925Z,15.67
2018-12-09T15:22:36.234Z,18.30
2018-12-09T15:25:08.527Z,20.23
2018-12-09T15:27:37.841Z,18.20
2018-12-09T15:30:08.754Z,14.70
2018-12-09T15:32:38.185Z,11.33
2018-12-09T15:35:07.736Z,15.27
2018-12-09T15:37:37.048Z,13.33
2018-12-09T15:40:07.138Z,10.03
2018-12-09T15:42:36.476Z,16.30
2018-12-09T15:45:07.617Z,13.80
2018-12-09T15:47:37.020Z,13.77
2018-12-09T15:50:09.546Z,18.93
2018-12-09T15:52:39.798Z,18.87
2018-12-09T15:55:09.694Z,18.80
2018-12-09T15:57:39.291Z,14.20
2018-12-09T16:00:09.321Z,21.27
2018-12-09T16:02:39.039Z,17.07
2018-12-09T16:05:08.842Z,17.00
2018-12-09T16:07:38.636Z,16.93
2018-12-09T16:10:10.707Z,23.47
2018-12-09T16:12:40.303Z,21.30
2018-12-09T16:17:40.956Z,17.97
2018-12-09T16:20:10.550Z,18.23
2018-12-09T16:22:40.090Z,22.07
2018-12-09T16:25:10.084Z,15.03
2018-12-09T16:27:40.301Z,16.55
2018-12-09T16:30:10.224Z,14.80
2018-12-09T16:32:39.723Z,18.43
2018-12-09T16:35:10.589Z,14.30
2018-12-09T16:37:40.588Z,17.20
2018-12-09T16:40:10.231Z,17.97
2018-12-09T16:42:39.737Z,24.57
2018-12-09T16:45:09.331Z,21.07
2018-12-09T16:47:38.809Z,19.20
2018-12-09T16:50:09.228Z,24.82
2018-12-09T16:52:39.090Z,15.87
2018-12-09T16:55:08.736Z,26.57
2018-12-09T17:00:30.660Z,25.20
2018-12-09T17:02:59.989Z,27.90
2018-12-09T17:05:29.340Z,21.55
2018-12-09T17:07:58.838Z,24.10
2018-12-09T17:10:28.168Z,27.20
2018-12-09T17:12:57.477Z,16.47
2018-12-09T17:15:26.803Z,15.17
2018-12-09T17:17:56.152Z,13.67
2018-12-09T17:20:25.502Z,16.20
2018-12-09T17:22:54.781Z,13.93
2018-12-09T17:25:24.235Z,13.60
2018-12-09T17:27:53.506Z,16.03
2018-12-09T17:30:22.844Z,15.37
2018-12-09T17:32:52.168Z,11.53
2018-12-09T17:35:21.608Z,12.10
2018-12-09T17:37:51.006Z,12.50
2018-12-09T17:40:20.409Z,14.43
2018-12-09T17:42:49.864Z,10.97
2018-12-09T17:45:19.193Z,17.10
2018-12-09T17:47:48.478Z,9.30
2018-12-09T17:50:17.804Z,16.25
2018-12-09T17:52:47.738Z,17.87
2018-12-09T17:55:17.154Z,18.63
2018-12-09T17:57:46.681Z,20.23
2018-12-09T18:00:16.072Z,16.63
2018-12-09T18:02:46.496Z,16.03
2018-12-09T18:05:15.848Z,26.48
2018-12-09T18:07:45.133Z,19.63
2018-12-09T18:10:14.513Z,14.17
2018-12-09T18:12:47.999Z,20.87
2018-12-09T18:15:18.272Z,16.70
2018-12-09T18:17:47.566Z,17.03
2018-12-09T18:20:17.003Z,16.87
2018-12-09T18:22:46.629Z,15.17
2018-12-09T18:25:16.139Z,33.10
2018-12-09T18:27:45.678Z,19.25
2018-12-09T18:30:15.603Z,24.30
2018-12-09T18:32:45.016Z,17.23
2018-12-09T18:35:14.501Z,17.92
2018-12-09T18:37:43.796Z,15.87
2018-12-09T18:40:13.118Z,17.97
2018-12-09T18:42:42.450Z,19.13
2018-12-09T18:45:11.783Z,19.90
2018-12-09T18:47:41.208Z,23.37
2018-12-09T18:52:36.517Z,11.47
2018-12-09T18:55:06.578Z,19.17
2018-12-09T18:57:36.061Z,19.77
2018-12-09T19:00:06.874Z,10.45
2018-12-09T19:02:36.218Z,20.83
2018-12-09T19:05:08.783Z,15.25
2018-12-09T19:07:38.132Z,15.63
2018-12-09T19:10:07.805Z,13.87
2018-12-09T19:12:37.115Z,12.00
2018-12-09T19:15:06.687Z,13.22
2018-12-09T19:17:36.220Z,18.27
2018-12-09T19:20:06.195Z,16.17
2018-12-09T19:22:35.521Z,14.53
2018-12-09T19:25:06.458Z,15.63
2018-12-09T19:27:35.785Z,10.83
2018-12-09T19:30:06.614Z,17.85
2018-12-09T19:32:35.998Z,12.60
2018-12-09T19:35:06.972Z,12.44
2018-12-09T19:37:36.807Z,8.30
2018-12-09T19:40:09.757Z,12.83
2018-12-09T19:42:39.446Z,11.37
2018-12-09T19:45:09.182Z,22.53
2018-12-09T19:47:38.718Z,13.97
2018-12-09T19:50:08.397Z,10.00
2018-12-09T19:52:38.490Z,11.27
2018-12-09T19:55:09.263Z,15.48
2018-12-09T19:57:39.668Z,12.88
2018-12-09T20:00:36.189Z,11.43
2018-12-09T20:03:07.270Z,22.05
2018-12-09T20:05:37.297Z,15.30
2018-12-09T20:08:07.396Z,16.63
2018-12-09T20:10:37.518Z,15.93
2018-12-09T20:13:07.541Z,23.33
2018-12-09T20:15:37.530Z,21.57
2018-12-09T20:18:07.145Z,18.70
2018-12-09T20:20:36.869Z,14.93
2018-12-09T20:23:07.557Z,20.95
2018-12-09T20:25:37.198Z,19.00
2018-12-09T20:28:06.909Z,18.33
2018-12-09T20:30:41.426Z,12.93
2018-12-09T20:33:11.240Z,15.35
2018-12-09T20:35:40.843Z,10.40
2018-12-09T20:38:12.422Z,14.57
2018-12-09T20:40:42.005Z,17.30
2018-12-09T20:43:14.061Z,18.55
2018-12-09T20:45:44.786Z,14.15
2018-12-09T20:48:15.860Z,15.60
2018-12-09T20:50:45.752Z,10.37
2018-12-09T20:53:15.380Z,8.08
2018-12-09T20:55:45.566Z,8.63
2018-12-09T20:58:15.197Z,11.90
2018-12-09T21:00:46.547Z,11.23
2018-12-09T21:03:16.225Z,7.87
2018-12-09T21:05:45.595Z,11.75
2018-12-09T21:08:14.890Z,9.80
2018-12-09T21:10:44.201Z,8.77
2018-12-09T21:13:13.518Z,13.22
2018-12-09T21:15:42.860Z,13.50
2018-12-09T21:18:14.808Z,10.63
2018-12-09T21:23:24.710Z,15.17
2018-12-09T21:25:54.050Z,14.67
2018-12-09T21:28:23.440Z,15.03
2018-12-09T21:30:52.753Z,18.40
2018-12-09T21:33:22.116Z,12.47
2018-12-09T21:35:51.464Z,13.97
2018-12-09T21:38:20.844Z,14.00
2018-12-09T21:40:50.160Z,16.80
2018-12-09T21:43:19.535Z,16.07
2018-12-09T21:45:48.857Z,15.20
2018-12-09T21:48:18.209Z,14.47
2018-12-09T21:50:47.608Z,15.17
2018-12-09T21:53:16.972Z,15.17
2018-12-09T21:55:46.277Z,21.33
2018-12-09T22:00:56.188Z,21.50
2018-12-09T22:03:25.509Z,18.57
2018-12-09T22:05:55.299Z,25.37
2018-12-09T22:08:25.355Z,17.63
2018-12-09T22:10:54.753Z,16.57
2018-12-09T22:13:24.100Z,15.93
2018-12-09T22:15:53.436Z,23.17
2018-12-09T22:18:22.818Z,11.23
2018-12-09T22:20:52.136Z,19.27
2018-12-09T22:23:21.502Z,23.07
2018-12-09T22:25:50.830Z,17.73
2018-12-09T22:28:20.147Z,15.80
2018-12-09T22:30:49.535Z,13.33
2018-12-09T22:33:18.875Z,9.70
2018-12-09T22:35:48.209Z,15.83
2018-12-09T22:38:17.546Z,13.47
2018-12-09T22:40:47.004Z,14.53
2018-12-09T22:43:19.252Z,12.37
2018-12-09T22:48:29.151Z,14.13
2018-12-09T22:50:58.507Z,9.30
2018-12-09T22:53:27.956Z,14.10
2018-12-09T22:55:57.269Z,8.13
2018-12-09T22:58:26.593Z,7.37
2018-12-09T23:01:01.289Z,8.03
2018-12-09T23:03:30.694Z,9.67
2018-12-09T23:06:00.044Z,13.87
2018-12-09T23:08:29.355Z,9.57
2018-12-09T23:10:58.733Z,8.57
2018-12-09T23:13:28.063Z,7.10
2018-12-09T23:18:37.532Z,12.30
2018-12-09T23:21:06.878Z,9.57
2018-12-09T23:23:36.175Z,9.87
2018-12-09T23:26:06.174Z,12.00
2018-12-09T23:28:35.580Z,11.90
2018-12-09T23:31:06.300Z,7.40
2018-12-09T23:33:35.654Z,11.93
2018-12-09T23:36:06.298Z,7.90
2018-12-09T23:38:36.879Z,7.37
2018-12-09T23:41:07.828Z,10.37
2018-12-09T23:43:37.139Z,10.70
2018-12-09T23:46:06.463Z,10.23
2018-12-09T23:48:35.810Z,12.13
2018-12-09T23:51:06.261Z,8.92
2018-12-09T23:53:35.616Z,9.03
2018-12-09T23:56:06.200Z,16.03
2018-12-09T23:58:35.545Z,10.83
